Flight Track Log - Related Links

Times and Time Zones

All times are in EDT time to prevent confusion due to time zone crossing. See the N655CM flight status page for this flight to view local times or setup timezone preferences in your user account.

Time Position Orientation Groundspeed Altitude Reporting Facility
EDT Latitude Longitude Course Direction KTS MPH feet Rate Location/Type
Sat 11:33:30 AM 40.7833 -74.3200 232° Southwest 174 200 4,600  Level New York Center
Sat 11:34:30 AM 40.7481 -74.3786 232° Southwest 133 153 5,800 1,169 Climbing New York Center
Sat 11:35:28 AM 40.6978 -74.4608 231° Southwest 204 235 6,900 1,916 Climbing New York Center
Sat 11:36:29 AM 40.6600 -74.5353 236° Southwest 271 312 9,600 2,410 Climbing New York Center
Sat 11:37:30 AM 40.6111 -74.6256 235° Southwest 278 320 11,800 2,118 Climbing New York Center
Sat 11:38:28 AM 40.5711 -74.7025 236° Southwest 278 320 13,800 2,136 Climbing New York Center
Sat 11:39:28 AM 40.5200 -74.7953 234° Southwest 278 320 16,000 1,934 Climbing New York Center
Sat 11:40:29 AM 40.4733 -74.8825 235° Southwest 295 339 17,700 1,736 Climbing New York Center
Sat 11:41:29 AM 40.4269 -74.9561 230° Southwest 295 339 19,500 1,736 Climbing New York Center
Sat 11:42:30 AM 40.3739 -75.0400 230° Southwest 295 339 21,200 1,500 Climbing New York Center
Sat 11:43:29 AM 40.3147 -75.1208 226° Southwest 305 351 22,500 1,300 Climbing New York Center
Sat 11:44:30 AM 40.2575 -75.2042 228° Southwest 305 351 23,800 1,488 Climbing New York Center
Sat 11:45:30 AM 40.1914 -75.2978 227° Southwest 313 360 25,500 1,475 Climbing New York Center
Sat 11:46:28 AM 40.1297 -75.3806 226° Southwest 313 360 26,700 1,119 Climbing New York Center
Sat 11:47:28 AM 40.0681 -75.4661 227° Southwest 313 360 27,700 1,210 Climbing New York Center
Sat 11:48:32 AM 40.0081 -75.5542 228° Southwest 325 374 29,200 1,339 Climbing New York Center
Sat 11:49:29 AM 39.9442 -75.6392 226° Southwest 330 380 30,400 1,190 Climbing New York Center
Sat 11:50:28 AM 39.8842 -75.7325 230° Southwest 330 380 31,500 1,100 Climbing New York Center
Sat 11:51:29 AM 39.8261 -75.8228 230° Southwest 337 388 32,600 885 Climbing New York Center
Sat 11:52:30 AM 39.7656 -75.9186 231° Southwest 343 395 33,300 590 Climbing New York Center
Sat 11:53:31 AM 39.7072 -76.0114 231° Southwest 343 395 33,800 706 Climbing New York Center
Sat 11:55:37 AM 39.5853 -76.2019 230° Southwest 349 402 35,500 770 Climbing Washington Center
Sat 11:56:38 AM 39.5206 -76.2972 229° Southwest 351 404 36,200 726 Climbing Washington Center
Sat 11:57:41 AM 39.4478 -76.4133 231° Southwest 350 403 37,000 576 Climbing Washington Center
Sat 11:58:43 AM 39.3828 -76.5150 230° Southwest 350 403 37,400 488 Climbing Washington Center
Sat 11:59:44 AM 39.3194 -76.6133 230° Southwest 356 410 38,000 288 Climbing Washington Center
Sat 12:00:48 PM 39.2572 -76.7117 231° Southwest 354 407 38,000  Level Washington Center
Sat 12:01:48 PM 39.1911 -76.8131 230° Southwest 365 420 38,000  Level Washington Center
Sat 12:02:51 PM 39.1242 -76.9181 231° Southwest 374 430 38,000  Level Washington Center
Sat 12:03:55 PM 39.0567 -77.0233 230° Southwest 379 436 38,000  Level Washington Center
Sat 12:04:56 PM 38.9564 -77.1356 221° Southwest 392 451 38,000  Level Washington Center
Sat 12:05:57 PM 38.8719 -77.2286 221° Southwest 397 457 38,000  Level Washington Center
Sat 12:07:01 PM 38.7881 -77.3225 221° Southwest 397 457 38,000  Level Washington Center
Sat 12:08:01 PM 38.7111 -77.4214 225° Southwest 392 451 38,000  Level Washington Center
Sat 12:09:05 PM 38.6250 -77.5331 225° Southwest 393 452 38,000  Level Washington Center
Sat 12:10:06 PM 38.5531 -77.6231 224° Southwest 399 459 38,000  Level Washington Center
Sat 12:11:09 PM 38.4758 -77.7203 225° Southwest 389 448 38,000  Level Washington Center
Sat 12:12:10 PM 38.3967 -77.8211 225° Southwest 396 456 38,000  Level Washington Center
Sat 12:13:14 PM 38.3017 -77.9414 225° Southwest 401 461 38,000  Level Washington Center
Sat 12:14:15 PM 38.2214 -78.0417 224° Southwest 403 464 38,000  Level Washington Center
Sat 12:15:18 PM 38.1431 -78.1414 225° Southwest 401 461 38,000  Level Washington Center
Sat 12:16:19 PM 38.0644 -78.2411 225° Southwest 399 459 38,000  Level Washington Center
Sat 12:17:23 PM 37.9839 -78.3394 224° Southwest 405 466 38,000  Level Washington Center
Sat 12:18:24 PM 37.8906 -78.4547 224° Southwest 403 464 38,000  Level Washington Center
Sat 12:19:27 PM 37.8139 -78.5519 225° Southwest 401 461 38,000  Level Washington Center
Sat 12:20:28 PM 37.7356 -78.6475 224° Southwest 398 458 38,000  Level Washington Center
Sat 12:21:29 PM 37.6414 -78.7647 225° Southwest 402 463 38,000 -339 Level Washington Center
Sat 12:22:32 PM 37.5603 -78.8644 224° Southwest 426 490 37,300 -720 Descending Washington Center
Sat 12:23:34 PM 37.4800 -78.9614 224° Southwest 410 472 36,500 -976 Descending Washington Center
Sat 12:24:35 PM 37.4025 -79.0567 224° Southwest 400 460 35,300 -1,016 Descending Washington Center
Sat 12:25:38 PM 37.3022 -79.1731 223° Southwest 409 471 34,400 -871 Descending Washington Center
Sat 12:26:39 PM 37.2178 -79.2667 221° Southwest 411 473 33,500 -912 Descending Washington Center
Sat 12:27:43 PM 37.1217 -79.3467 214° Southwest 420 483 32,500 -1,440 Descending Washington Center
Sat 12:28:44 PM 37.0258 -79.4275 214° Southwest 422 486 30,500 -1,824 Descending Washington Center
Sat 12:29:48 PM 36.9086 -79.5214 213° Southwest 428 493 28,700 -1,333 Descending Washington Center
Sat 12:30:50 PM 36.8142 -79.6011 214° Southwest 421 484 27,700 -1,033 Descending Washington Center
Sat 12:31:50 PM 36.7214 -79.6775 213° Southwest 409 471 26,600 -1,210 Descending Washington Center
Sat 12:32:54 PM 36.6094 -79.7678 213° Southwest 411 473 25,200 -1,056 Descending Washington Center
Sat 12:33:55 PM 36.5169 -79.8469 215° Southwest 415 478 24,400 -581 Descending Washington Center
Sat 12:34:58 PM 36.4247 -79.9181 212° Southwest 401 461 24,000 -190 Descending Washington Center
Sat 12:36:01 PM 36.3286 -79.9944 213° Southwest 401 461 24,000 -195 Level Washington Center
Sat 12:37:01 PM 36.2419 -80.0703 215° Southwest 385 443 23,600 -1,452 Descending Washington Center
Sat 12:38:05 PM 36.1483 -80.1486 214° Southwest 386 444 21,000 -2,419 Descending Washington Center
Sat 12:39:05 PM 36.0447 -80.2381 215° Southwest 380 437 18,600 -2,379 Descending Washington Center
Sat 12:40:01 PM 35.9661 -80.3058 215° Southwest 364 419 16,400 -2,366 Descending Atlanta Center
Sat 12:40:16 PM 35.9456 -80.3222 213° Southwest 382 440 15,800 -2,286 Descending Atlanta Center
Sat 12:40:43 PM 35.9111 -80.3544 217° Southwest 362 417 14,800 -2,100 Descending Atlanta Center
Sat 12:41:16 PM 35.8642 -80.3900 212° Southwest 375 432 13,700 -1,612 Descending Atlanta Center
Sat 12:41:50 PM 35.8256 -80.4250 216° Southwest 296 341 13,000 -700 Descending Atlanta Center
Sat 12:42:16 PM 35.7992 -80.4467 214° Southwest 331 381 13,000 -327 Level Atlanta Center
Sat 12:42:45 PM 35.7667 -80.4761 216° Southwest 266 306 12,700 -1,000 Descending Atlanta Center
Sat 12:43:16 PM 35.7342 -80.5033 214° Southwest 302 348 12,000 -1,433 Descending Atlanta Center
Sat 12:43:52 PM 35.6933 -80.5383 215° Southwest 297 342 11,100 -1,700 Descending Atlanta Center
Sat 12:44:16 PM 35.6647 -80.5600 212° Southwest 297 342 10,300 -1,082 Descending Atlanta Center
Sat 12:44:53 PM 35.6242 -80.5950 215° Southwest 306 352 10,000 -300 Descending Atlanta Center
Sat 12:45:16 PM 35.5956 -80.6189 214° Southwest 302 348 10,000 -182 Level Atlanta Center
Sat 12:45:59 PM 35.5444 -80.6594 213° Southwest 302 348 9,800 -300 Descending Atlanta Center
Sat 12:46:16 PM 35.5322 -80.6703 216° Southwest 302 348 9,700 -612 Descending Atlanta Center
Sat 12:46:48 PM 35.4914 -80.7000 211° Southwest 295 339 9,300 -700 Descending Atlanta Center
Sat 12:47:16 PM 35.4606 -80.7139 200° South 297 342 9,000 -1,180 Descending Atlanta Center
Sat 12:47:49 PM 35.4111 -80.7389 202° Southwest 282 325 8,100 -1,400 Descending Atlanta Center
Sat 12:48:16 PM 35.3864 -80.7525 204° Southwest 292 336 7,600 -1,672 Descending Atlanta Center
Sat 12:48:50 PM 35.3389 -80.7747 201° Southwest 281 323 6,400 -2,000 Descending Atlanta Center
Sat 12:49:16 PM 35.3206 -80.7933 220° Southwest 287 330 5,600 -2,060 Descending Atlanta Center
Sat 12:49:57 PM 35.2886 -80.8456 233° Southwest 247 284 4,100 -2,139 Descending Atlanta Center
Sat 12:50:57 PM 35.2522 -80.8903 225° Southwest 167 192 2,000 -1,587 Descending Atlanta Center
Sat 12:51:58 PM 35.2222 -80.9344 230° Southwest 145 167 900 -1,082 Descending Atlanta Center
Sat 12:53:00 PM 35.2137 -80.9491 39° Northeast  Level Estimated
Sat 01:00:00 PM 35.2137 -80.9491 39° Northeast  Level Estimated

Login

Don't have an account? Register now (free) for customized features, flight alerts, and more!